sensor_id;sensor_type;location;lat;lon;timestamp;pressure;altitude;pressure_sealevel;temperature;humidity
76627;BME280;65519;53.230;10.390;2023-07-09T00:01:47;101695.72;;;21.58;52.71
76627;BME280;65519;53.230;10.390;2023-07-09T00:04:12;101699.63;;;21.57;52.60
76627;BME280;65519;53.230;10.390;2023-07-09T00:06:39;101692.41;;;21.47;53.09
76627;BME280;65519;53.230;10.390;2023-07-09T00:09:06;101702.69;;;21.46;52.82
76627;BME280;65519;53.230;10.390;2023-07-09T00:11:37;101698.97;;;21.51;52.27
76627;BME280;65519;53.230;10.390;2023-07-09T00:14:05;101712.34;;;21.49;52.86
76627;BME280;65519;53.230;10.390;2023-07-09T00:16:31;101708.03;;;21.43;53.36
76627;BME280;65519;53.230;10.390;2023-07-09T00:18:56;101698.72;;;21.39;53.20
76627;BME280;65519;53.230;10.390;2023-07-09T00:21:22;101705.72;;;21.36;53.14
76627;BME280;65519;53.230;10.390;2023-07-09T00:23:47;101705.53;;;21.33;53.14
76627;BME280;65519;53.230;10.390;2023-07-09T00:26:17;101693.31;;;21.34;53.99
76627;BME280;65519;53.230;10.390;2023-07-09T00:28:45;101701.00;;;21.37;54.02
76627;BME280;65519;53.230;10.390;2023-07-09T00:31:13;101692.16;;;21.12;54.58
76627;BME280;65519;53.230;10.390;2023-07-09T00:33:41;101679.16;;;20.99;54.59
76627;BME280;65519;53.230;10.390;2023-07-09T00:36:30;101708.53;;;21.00;54.87
76627;BME280;65519;53.230;10.390;2023-07-09T00:38:59;101707.53;;;20.96;54.72
76627;BME280;65519;53.230;10.390;2023-07-09T00:41:35;101719.56;;;20.92;55.21
76627;BME280;65519;53.230;10.390;2023-07-09T00:44:29;101709.22;;;20.84;55.69
76627;BME280;65519;53.230;10.390;2023-07-09T00:49:34;101722.31;;;20.69;55.91
76627;BME280;65519;53.230;10.390;2023-07-09T00:54:49;101713.69;;;20.71;56.05
76627;BME280;65519;53.230;10.390;2023-07-09T00:57:20;101708.03;;;20.76;56.24
76627;BME280;65519;53.230;10.390;2023-07-09T00:59:50;101708.91;;;20.85;55.75
76627;BME280;65519;53.230;10.390;2023-07-09T01:02:17;101712.19;;;20.87;55.52
76627;BME280;65519;53.230;10.390;2023-07-09T01:04:52;101702.88;;;20.83;55.09
76627;BME280;65519;53.230;10.390;2023-07-09T01:07:20;101707.78;;;20.86;55.21
76627;BME280;65519;53.230;10.390;2023-07-09T01:09:47;101706.25;;;20.80;54.94
76627;BME280;65519;53.230;10.390;2023-07-09T01:12:14;101695.94;;;20.72;55.54
76627;BME280;65519;53.230;10.390;2023-07-09T01:14:42;101706.38;;;20.75;55.64
76627;BME280;65519;53.230;10.390;2023-07-09T01:17:09;101706.19;;;20.71;55.61
76627;BME280;65519;53.230;10.390;2023-07-09T01:19:40;101695.34;;;20.61;55.67
76627;BME280;65519;53.230;10.390;2023-07-09T01:22:12;101696.75;;;20.72;55.75
76627;BME280;65519;53.230;10.390;2023-07-09T01:27:20;101698.03;;;20.53;55.36
76627;BME280;65519;53.230;10.390;2023-07-09T01:29:47;101695.88;;;20.50;55.88
76627;BME280;65519;53.230;10.390;2023-07-09T01:32:18;101695.19;;;20.44;56.16
76627;BME280;65519;53.230;10.390;2023-07-09T01:34:45;101694.75;;;20.51;55.76
76627;BME280;65519;53.230;10.390;2023-07-09T01:37:20;101683.19;;;20.35;56.67
76627;BME280;65519;53.230;10.390;2023-07-09T01:39:50;101692.72;;;20.43;56.88
76627;BME280;65519;53.230;10.390;2023-07-09T01:42:17;101688.94;;;20.38;56.69
76627;BME280;65519;53.230;10.390;2023-07-09T01:44:45;101686.97;;;20.39;56.30
76627;BME280;65519;53.230;10.390;2023-07-09T01:47:11;101689.25;;;20.37;56.22
76627;BME280;65519;53.230;10.390;2023-07-09T01:49:37;101694.06;;;20.31;57.08
76627;BME280;65519;53.230;10.390;2023-07-09T01:52:06;101696.41;;;20.24;57.02
76627;BME280;65519;53.230;10.390;2023-07-09T01:54:34;101694.38;;;20.16;57.22
76627;BME280;65519;53.230;10.390;2023-07-09T01:57:22;101686.56;;;20.18;56.98
76627;BME280;65519;53.230;10.390;2023-07-09T01:59:50;101685.16;;;20.07;57.22
76627;BME280;65519;53.230;10.390;2023-07-09T02:02:17;101693.25;;;20.03;57.59
76627;BME280;65519;53.230;10.390;2023-07-09T02:04:50;101685.88;;;19.99;57.60
76627;BME280;65519;53.230;10.390;2023-07-09T02:07:17;101681.56;;;19.93;57.71
76627;BME280;65519;53.230;10.390;2023-07-09T02:09:44;101692.94;;;20.05;57.35
76627;BME280;65519;53.230;10.390;2023-07-09T02:12:10;101701.53;;;20.03;57.57
76627;BME280;65519;53.230;10.390;2023-07-09T02:14:37;101698.97;;;19.93;57.55
76627;BME280;65519;53.230;10.390;2023-07-09T02:17:03;101698.81;;;19.90;57.83
76627;BME280;65519;53.230;10.390;2023-07-09T02:19:29;101694.25;;;19.80;58.04
76627;BME280;65519;53.230;10.390;2023-07-09T02:21:55;101692.94;;;19.78;58.54
76627;BME280;65519;53.230;10.390;2023-07-09T02:24:21;101695.19;;;19.62;58.73
76627;BME280;65519;53.230;10.390;2023-07-09T02:26:51;101684.22;;;19.71;58.36
76627;BME280;65519;53.230;10.390;2023-07-09T02:29:17;101687.41;;;19.78;58.01
76627;BME280;65519;53.230;10.390;2023-07-09T02:31:44;101683.53;;;19.79;58.14
76627;BME280;65519;53.230;10.390;2023-07-09T02:34:09;101680.63;;;19.56;58.50
76627;BME280;65519;53.230;10.390;2023-07-09T02:36:35;101671.22;;;19.57;58.27
76627;BME280;65519;53.230;10.390;2023-07-09T02:39:00;101680.53;;;19.61;58.44
76627;BME280;65519;53.230;10.390;2023-07-09T02:41:26;101687.81;;;19.57;58.48
76627;BME280;65519;53.230;10.390;2023-07-09T02:43:51;101693.94;;;19.54;58.40
76627;BME280;65519;53.230;10.390;2023-07-09T02:46:18;101689.25;;;19.55;58.79
76627;BME280;65519;53.230;10.390;2023-07-09T02:48:44;101694.03;;;19.49;59.05
76627;BME280;65519;53.230;10.390;2023-07-09T02:51:09;101693.22;;;19.62;58.52
76627;BME280;65519;53.230;10.390;2023-07-09T02:53:35;101695.81;;;19.40;59.24
76627;BME280;65519;53.230;10.390;2023-07-09T02:56:00;101695.72;;;19.31;59.35
76627;BME280;65519;53.230;10.390;2023-07-09T02:58:26;101692.81;;;19.23;60.13
76627;BME280;65519;53.230;10.390;2023-07-09T03:00:51;101698.72;;;19.16;60.33
76627;BME280;65519;53.230;10.390;2023-07-09T03:03:21;101698.00;;;19.11;60.75
76627;BME280;65519;53.230;10.390;2023-07-09T03:05:47;101701.00;;;19.28;60.01
76627;BME280;65519;53.230;10.390;2023-07-09T03:08:13;101707.13;;;19.11;59.89
76627;BME280;65519;53.230;10.390;2023-07-09T03:10:40;101704.06;;;19.13;60.03
76627;BME280;65519;53.230;10.390;2023-07-09T03:13:06;101713.53;;;19.07;59.89
76627;BME280;65519;53.230;10.390;2023-07-09T03:15:31;101696.59;;;19.13;60.14
76627;BME280;65519;53.230;10.390;2023-07-09T03:17:57;101704.06;;;19.26;59.78
76627;BME280;65519;53.230;10.390;2023-07-09T03:20:23;101702.22;;;19.22;59.84
76627;BME280;65519;53.230;10.390;2023-07-09T03:22:48;101699.72;;;19.07;60.59
76627;BME280;65519;53.230;10.390;2023-07-09T03:25:14;101693.53;;;18.96;61.00
76627;BME280;65519;53.230;10.390;2023-07-09T03:27:39;101711.38;;;19.04;60.38
76627;BME280;65519;53.230;10.390;2023-07-09T03:30:05;101703.00;;;19.09;59.92
76627;BME280;65519;53.230;10.390;2023-07-09T03:32:31;101695.59;;;19.04;59.92
76627;BME280;65519;53.230;10.390;2023-07-09T03:34:56;101672.72;;;18.85;59.63
76627;BME280;65519;53.230;10.390;2023-07-09T03:37:22;101708.34;;;19.19;59.46
76627;BME280;65519;53.230;10.390;2023-07-09T03:39:48;101705.25;;;19.07;59.39
76627;BME280;65519;53.230;10.390;2023-07-09T03:42:13;101709.78;;;19.16;59.29
76627;BME280;65519;53.230;10.390;2023-07-09T03:44:39;101705.16;;;19.12;59.13
76627;BME280;65519;53.230;10.390;2023-07-09T03:47:05;101710.50;;;18.89;59.90
76627;BME280;65519;53.230;10.390;2023-07-09T03:49:31;101711.91;;;18.87;60.36
76627;BME280;65519;53.230;10.390;2023-07-09T03:51:57;101716.09;;;18.84;60.83
76627;BME280;65519;53.230;10.390;2023-07-09T03:54:22;101709.97;;;18.87;61.16
76627;BME280;65519;53.230;10.390;2023-07-09T03:56:48;101719.78;;;18.80;61.85
76627;BME280;65519;53.230;10.390;2023-07-09T03:59:13;101666.16;;;18.62;61.39
76627;BME280;65519;53.230;10.390;2023-07-09T04:01:39;101710.28;;;18.67;61.93
76627;BME280;65519;53.230;10.390;2023-07-09T04:04:04;101707.06;;;18.79;61.34
76627;BME280;65519;53.230;10.390;2023-07-09T04:06:29;101716.22;;;18.93;61.24
76627;BME280;65519;53.230;10.390;2023-07-09T04:08:55;101721.25;;;18.91;61.35
76627;BME280;65519;53.230;10.390;2023-07-09T04:11:20;101726.50;;;18.92;61.37
76627;BME280;65519;53.230;10.390;2023-07-09T04:13:46;101720.63;;;18.94;61.32
76627;BME280;65519;53.230;10.390;2023-07-09T04:16:11;101717.97;;;18.89;61.39
76627;BME280;65519;53.230;10.390;2023-07-09T04:18:37;101711.38;;;18.85;61.19
76627;BME280;65519;53.230;10.390;2023-07-09T04:21:03;101717.69;;;18.90;61.49
76627;BME280;65519;53.230;10.390;2023-07-09T04:23:29;101720.50;;;18.85;61.69
76627;BME280;65519;53.230;10.390;2023-07-09T04:25:54;101718.66;;;18.81;61.73
76627;BME280;65519;53.230;10.390;2023-07-09T04:28:20;101720.31;;;18.82;61.54
76627;BME280;65519;53.230;10.390;2023-07-09T04:30:49;101715.56;;;18.82;62.07
76627;BME280;65519;53.230;10.390;2023-07-09T04:33:16;101718.03;;;18.84;61.73
76627;BME280;65519;53.230;10.390;2023-07-09T04:35:46;101720.50;;;18.85;60.79
76627;BME280;65519;53.230;10.390;2023-07-09T04:38:12;101720.88;;;18.98;61.44
76627;BME280;65519;53.230;10.390;2023-07-09T04:40:38;101726.69;;;18.96;60.00
76627;BME280;65519;53.230;10.390;2023-07-09T04:43:03;101720.28;;;19.01;60.47
76627;BME280;65519;53.230;10.390;2023-07-09T04:45:29;101728.75;;;19.04;59.61
76627;BME280;65519;53.230;10.390;2023-07-09T04:47:54;101725.13;;;19.09;59.41
76627;BME280;65519;53.230;10.390;2023-07-09T04:50:20;101719.00;;;19.12;59.26
76627;BME280;65519;53.230;10.390;2023-07-09T04:52:45;101713.66;;;19.15;58.39
76627;BME280;65519;53.230;10.390;2023-07-09T04:55:11;101710.00;;;19.20;57.98
76627;BME280;65519;53.230;10.390;2023-07-09T04:57:36;101713.19;;;19.27;57.80
76627;BME280;65519;53.230;10.390;2023-07-09T05:00:03;101720.47;;;19.23;57.78
76627;BME280;65519;53.230;10.390;2023-07-09T05:02:31;101724.88;;;19.24;57.89
76627;BME280;65519;53.230;10.390;2023-07-09T05:04:57;101721.84;;;19.39;57.96
76627;BME280;65519;53.230;10.390;2023-07-09T05:07:22;101729.47;;;19.28;58.22
76627;BME280;65519;53.230;10.390;2023-07-09T05:09:47;101733.72;;;19.40;56.92
76627;BME280;65519;53.230;10.390;2023-07-09T05:12:13;101724.41;;;19.36;56.82
76627;BME280;65519;53.230;10.390;2023-07-09T05:14:39;101725.88;;;19.47;55.89
76627;BME280;65519;53.230;10.390;2023-07-09T05:17:05;101728.34;;;19.48;55.87
76627;BME280;65519;53.230;10.390;2023-07-09T05:19:31;101723.78;;;19.57;54.98
76627;BME280;65519;53.230;10.390;2023-07-09T05:21:57;101724.19;;;19.64;55.37
76627;BME280;65519;53.230;10.390;2023-07-09T05:24:23;101718.94;;;19.63;56.24
76627;BME280;65519;53.230;10.390;2023-07-09T05:26:48;101723.06;;;19.65;54.64
76627;BME280;65519;53.230;10.390;2023-07-09T05:29:14;101731.53;;;19.69;55.00
76627;BME280;65519;53.230;10.390;2023-07-09T05:31:39;101717.34;;;19.76;55.53
76627;BME280;65519;53.230;10.390;2023-07-09T05:34:07;101715.09;;;19.78;55.32
76627;BME280;65519;53.230;10.390;2023-07-09T05:36:33;101709.13;;;19.84;54.36
76627;BME280;65519;53.230;10.390;2023-07-09T05:38:59;101708.00;;;19.85;54.91
76627;BME280;65519;53.230;10.390;2023-07-09T05:41:24;101719.50;;;20.06;53.77
76627;BME280;65519;53.230;10.390;2023-07-09T05:43:51;101712.84;;;20.07;54.39
76627;BME280;65519;53.230;10.390;2023-07-09T05:46:18;101708.34;;;20.11;54.39
76627;BME280;65519;53.230;10.390;2023-07-09T05:48:44;101701.31;;;20.27;53.80
76627;BME280;65519;53.230;10.390;2023-07-09T05:51:09;101706.25;;;20.30;54.13
76627;BME280;65519;53.230;10.390;2023-07-09T05:53:35;101696.00;;;20.31;53.73
76627;BME280;65519;53.230;10.390;2023-07-09T05:56:00;101705.94;;;20.46;53.76
76627;BME280;65519;53.230;10.390;2023-07-09T05:58:26;101706.88;;;20.55;52.79
76627;BME280;65519;53.230;10.390;2023-07-09T06:00:52;101704.78;;;20.60;52.22
76627;BME280;65519;53.230;10.390;2023-07-09T06:03:24;101705.47;;;20.66;52.29
76627;BME280;65519;53.230;10.390;2023-07-09T06:05:50;101707.13;;;20.67;52.87
76627;BME280;65519;53.230;10.390;2023-07-09T06:08:18;101707.53;;;20.74;52.11
76627;BME280;65519;53.230;10.390;2023-07-09T06:11:09;101713.66;;;20.85;53.16
76627;BME280;65519;53.230;10.390;2023-07-09T06:13:35;101712.28;;;20.96;52.03
76627;BME280;65519;53.230;10.390;2023-07-09T06:16:01;101710.78;;;20.98;51.90
76627;BME280;65519;53.230;10.390;2023-07-09T06:18:26;101718.06;;;21.08;51.89
76627;BME280;65519;53.230;10.390;2023-07-09T06:20:59;101719.25;;;21.16;52.20
76627;BME280;65519;53.230;10.390;2023-07-09T06:23:25;101721.19;;;21.29;51.58
76627;BME280;65519;53.230;10.390;2023-07-09T06:25:50;101716.00;;;21.36;52.34
76627;BME280;65519;53.230;10.390;2023-07-09T06:28:17;101718.00;;;21.44;50.67
76627;BME280;65519;53.230;10.390;2023-07-09T06:30:44;101720.50;;;21.54;50.67
76627;BME280;65519;53.230;10.390;2023-07-09T06:33:11;101718.03;;;21.53;50.27
76627;BME280;65519;53.230;10.390;2023-07-09T06:35:37;101714.00;;;21.59;50.39
76627;BME280;65519;53.230;10.390;2023-07-09T06:38:03;101722.56;;;21.71;50.44
76627;BME280;65519;53.230;10.390;2023-07-09T06:40:29;101720.34;;;21.81;50.09
76627;BME280;65519;53.230;10.390;2023-07-09T06:42:54;101726.53;;;21.87;50.33
76627;BME280;65519;53.230;10.390;2023-07-09T06:45:28;101722.56;;;22.02;50.22
76627;BME280;65519;53.230;10.390;2023-07-09T06:47:54;101703.13;;;22.02;49.76
76627;BME280;65519;53.230;10.390;2023-07-09T06:50:19;101712.63;;;22.18;50.47
76627;BME280;65519;53.230;10.390;2023-07-09T06:52:46;101718.06;;;22.23;50.07
76627;BME280;65519;53.230;10.390;2023-07-09T06:55:11;101720.84;;;22.32;49.95
76627;BME280;65519;53.230;10.390;2023-07-09T06:57:37;101716.28;;;22.36;49.90
76627;BME280;65519;53.230;10.390;2023-07-09T07:00:03;101714.16;;;22.41;49.13
76627;BME280;65519;53.230;10.390;2023-07-09T07:02:28;101718.28;;;22.52;48.78
76627;BME280;65519;53.230;10.390;2023-07-09T07:04:54;101713.06;;;22.60;49.17
76627;BME280;65519;53.230;10.390;2023-07-09T07:07:20;101720.75;;;22.71;49.03
76627;BME280;65519;53.230;10.390;2023-07-09T07:09:46;101723.25;;;22.81;48.86
76627;BME280;65519;53.230;10.390;2023-07-09T07:12:22;101719.97;;;22.88;48.49
76627;BME280;65519;53.230;10.390;2023-07-09T07:14:48;101715.22;;;22.97;48.21
76627;BME280;65519;53.230;10.390;2023-07-09T07:17:14;101713.25;;;23.06;47.54
76627;BME280;65519;53.230;10.390;2023-07-09T07:19:39;101709.19;;;23.04;47.51
76627;BME280;65519;53.230;10.390;2023-07-09T07:22:05;101699.00;;;23.08;47.60
76627;BME280;65519;53.230;10.390;2023-07-09T07:24:32;101718.47;;;23.16;48.02
76627;BME280;65519;53.230;10.390;2023-07-09T07:26:58;101704.09;;;23.14;47.76
76627;BME280;65519;53.230;10.390;2023-07-09T07:29:23;101704.06;;;23.32;47.78
76627;BME280;65519;53.230;10.390;2023-07-09T07:31:49;101716.31;;;23.39;48.25
76627;BME280;65519;53.230;10.390;2023-07-09T07:34:14;101714.50;;;23.52;47.10
76627;BME280;65519;53.230;10.390;2023-07-09T07:36:40;101712.03;;;23.59;47.19
76627;BME280;65519;53.230;10.390;2023-07-09T07:39:05;101723.47;;;23.66;46.11
76627;BME280;65519;53.230;10.390;2023-07-09T07:41:31;101711.50;;;23.74;45.94
76627;BME280;65519;53.230;10.390;2023-07-09T07:43:56;101702.66;;;23.72;46.24
76627;BME280;65519;53.230;10.390;2023-07-09T07:46:22;101708.34;;;23.84;45.21
76627;BME280;65519;53.230;10.390;2023-07-09T07:48:47;101700.75;;;23.93;44.51
76627;BME280;65519;53.230;10.390;2023-07-09T07:51:13;101706.47;;;23.97;45.50
76627;BME280;65519;53.230;10.390;2023-07-09T07:53:38;101709.44;;;24.00;45.67
76627;BME280;65519;53.230;10.390;2023-07-09T07:56:04;101706.25;;;24.11;45.48
76627;BME280;65519;53.230;10.390;2023-07-09T07:58:30;101696.41;;;24.22;45.30
76627;BME280;65519;53.230;10.390;2023-07-09T08:00:59;101690.88;;;24.34;44.20
76627;BME280;65519;53.230;10.390;2023-07-09T08:03:25;101688.72;;;24.40;44.54
76627;BME280;65519;53.230;10.390;2023-07-09T08:05:51;101693.22;;;24.53;44.04
76627;BME280;65519;53.230;10.390;2023-07-09T08:08:18;101690.78;;;24.51;43.39
76627;BME280;65519;53.230;10.390;2023-07-09T08:10:44;101695.88;;;24.70;43.88
76627;BME280;65519;53.230;10.390;2023-07-09T08:13:09;101691.84;;;24.80;44.13
76627;BME280;65519;53.230;10.390;2023-07-09T08:15:35;101690.63;;;24.89;43.08
76627;BME280;65519;53.230;10.390;2023-07-09T08:18:00;101681.41;;;24.97;42.64
76627;BME280;65519;53.230;10.390;2023-07-09T08:20:26;101681.50;;;25.01;42.22
76627;BME280;65519;53.230;10.390;2023-07-09T08:22:51;101695.13;;;25.02;42.00
76627;BME280;65519;53.230;10.390;2023-07-09T08:25:17;101687.75;;;25.19;42.04
76627;BME280;65519;53.230;10.390;2023-07-09T08:27:43;101693.25;;;25.27;41.54
76627;BME280;65519;53.230;10.390;2023-07-09T08:30:09;101679.06;;;25.32;41.21
76627;BME280;65519;53.230;10.390;2023-07-09T08:32:34;101694.09;;;25.40;41.52
76627;BME280;65519;53.230;10.390;2023-07-09T08:35:00;101691.34;;;25.52;41.50
76627;BME280;65519;53.230;10.390;2023-07-09T08:37:25;101698.81;;;25.60;42.61
76627;BME280;65519;53.230;10.390;2023-07-09T08:39:51;101693.59;;;25.71;43.13
76627;BME280;65519;53.230;10.390;2023-07-09T08:42:31;101694.31;;;25.80;43.03
76627;BME280;65519;53.230;10.390;2023-07-09T08:45:08;101690.56;;;25.88;42.61
76627;BME280;65519;53.230;10.390;2023-07-09T08:50:09;101685.69;;;25.97;42.03
76627;BME280;65519;53.230;10.390;2023-07-09T08:52:41;101683.84;;;26.01;42.52
76627;BME280;65519;53.230;10.390;2023-07-09T08:55:15;101671.97;;;26.16;41.56
76627;BME280;65519;53.230;10.390;2023-07-09T08:57:44;101671.59;;;26.30;40.32
76627;BME280;65519;53.230;10.390;2023-07-09T09:00:17;101670.53;;;26.47;41.04
76627;BME280;65519;53.230;10.390;2023-07-09T09:02:45;101673.88;;;26.52;40.81
76627;BME280;65519;53.230;10.390;2023-07-09T09:05:18;101670.94;;;26.61;40.29
76627;BME280;65519;53.230;10.390;2023-07-09T09:07:49;101665.78;;;26.75;38.87
76627;BME280;65519;53.230;10.390;2023-07-09T09:10:26;101664.25;;;26.78;40.08
76627;BME280;65519;53.230;10.390;2023-07-09T09:15:20;101663.84;;;27.04;39.79
76627;BME280;65519;53.230;10.390;2023-07-09T09:17:50;101667.28;;;27.13;39.55
76627;BME280;65519;53.230;10.390;2023-07-09T09:20:20;101672.34;;;27.23;38.91
76627;BME280;65519;53.230;10.390;2023-07-09T09:23:12;101668.38;;;27.24;39.41
76627;BME280;65519;53.230;10.390;2023-07-09T09:25:41;101661.09;;;27.35;39.29
76627;BME280;65519;53.230;10.390;2023-07-09T09:28:09;101662.25;;;27.34;37.65
76627;BME280;65519;53.230;10.390;2023-07-09T09:30:35;101661.38;;;27.46;38.70
76627;BME280;65519;53.230;10.390;2023-07-09T09:33:11;101665.72;;;27.59;37.89
76627;BME280;65519;53.230;10.390;2023-07-09T09:35:42;101661.03;;;27.63;38.68
76627;BME280;65519;53.230;10.390;2023-07-09T09:38:23;101658.66;;;27.81;38.00
76627;BME280;65519;53.230;10.390;2023-07-09T09:40:48;101649.91;;;27.98;37.53
76627;BME280;65519;53.230;10.390;2023-07-09T09:43:17;101658.63;;;28.12;37.14
76627;BME280;65519;53.230;10.390;2023-07-09T09:45:46;101642.53;;;28.25;35.49
76627;BME280;65519;53.230;10.390;2023-07-09T09:48:32;101653.56;;;28.33;35.75
76627;BME280;65519;53.230;10.390;2023-07-09T09:50:58;101656.59;;;28.44;34.56
76627;BME280;65519;53.230;10.390;2023-07-09T09:53:29;101647.72;;;28.42;34.37
76627;BME280;65519;53.230;10.390;2023-07-09T09:56:04;101643.94;;;28.34;34.63
76627;BME280;65519;53.230;10.390;2023-07-09T09:58:30;101650.78;;;28.02;36.27
76627;BME280;65519;53.230;10.390;2023-07-09T10:00:58;101654.63;;;28.13;34.53
76627;BME280;65519;53.230;10.390;2023-07-09T10:03:37;101640.31;;;28.34;35.44
76627;BME280;65519;53.230;10.390;2023-07-09T10:11:47;101629.41;;;28.67;33.27
76627;BME280;65519;53.230;10.390;2023-07-09T10:16:51;101648.38;;;29.13;32.87
76627;BME280;65519;53.230;10.390;2023-07-09T10:19:28;101652.16;;;29.20;31.83
76627;BME280;65519;53.230;10.390;2023-07-09T10:25:35;101650.28;;;29.28;32.07
76627;BME280;65519;53.230;10.390;2023-07-09T10:31:10;101650.69;;;29.49;31.27
76627;BME280;65519;53.230;10.390;2023-07-09T10:39:00;101637.09;;;29.77;31.99
76627;BME280;65519;53.230;10.390;2023-07-09T10:41:28;101639.91;;;29.77;31.63
76627;BME280;65519;53.230;10.390;2023-07-09T10:46:33;101621.13;;;29.82;31.30
76627;BME280;65519;53.230;10.390;2023-07-09T10:49:00;101637.63;;;30.09;31.33
76627;BME280;65519;53.230;10.390;2023-07-09T10:51:37;101622.75;;;30.09;30.98
76627;BME280;65519;53.230;10.390;2023-07-09T10:54:26;101635.97;;;30.05;31.45
76627;BME280;65519;53.230;10.390;2023-07-09T10:57:01;101632.38;;;30.08;32.46
76627;BME280;65519;53.230;10.390;2023-07-09T10:59:32;101629.84;;;30.26;31.11
76627;BME280;65519;53.230;10.390;2023-07-09T11:02:17;101615.13;;;30.39;29.04
76627;BME280;65519;53.230;10.390;2023-07-09T11:05:04;101617.88;;;30.62;28.40
76627;BME280;65519;53.230;10.390;2023-07-09T11:07:54;101619.38;;;30.53;28.85
76627;BME280;65519;53.230;10.390;2023-07-09T11:10:24;101620.41;;;30.71;29.66
76627;BME280;65519;53.230;10.390;2023-07-09T11:13:07;101621.63;;;30.73;30.30
76627;BME280;65519;53.230;10.390;2023-07-09T11:15:40;101622.16;;;30.82;27.21
76627;BME280;65519;53.230;10.390;2023-07-09T11:18:10;101612.84;;;30.78;28.13
76627;BME280;65519;53.230;10.390;2023-07-09T11:20:43;101606.03;;;30.83;29.27
76627;BME280;65519;53.230;10.390;2023-07-09T11:23:21;101605.25;;;30.82;28.25
76627;BME280;65519;53.230;10.390;2023-07-09T11:26:00;101607.78;;;30.95;28.13
76627;BME280;65519;53.230;10.390;2023-07-09T11:28:37;101614.91;;;31.18;25.92
76627;BME280;65519;53.230;10.390;2023-07-09T11:31:39;101603.78;;;31.33;26.02
76627;BME280;65519;53.230;10.390;2023-07-09T11:36:33;101604.94;;;31.28;24.65
76627;BME280;65519;53.230;10.390;2023-07-09T11:39:00;101600.91;;;31.29;24.95
76627;BME280;65519;53.230;10.390;2023-07-09T11:41:40;101596.91;;;31.30;26.14
76627;BME280;65519;53.230;10.390;2023-07-09T11:52:09;101584.19;;;31.47;24.66
76627;BME280;65519;53.230;10.390;2023-07-09T11:54:36;101587.59;;;31.70;24.09
76627;BME280;65519;53.230;10.390;2023-07-09T11:57:03;101596.94;;;31.81;24.44
76627;BME280;65519;53.230;10.390;2023-07-09T11:59:38;101586.84;;;31.80;23.92
76627;BME280;65519;53.230;10.390;2023-07-09T12:02:04;101585.97;;;31.69;24.23
76627;BME280;65519;53.230;10.390;2023-07-09T12:04:34;101589.66;;;31.80;25.04
76627;BME280;65519;53.230;10.390;2023-07-09T12:07:01;101587.72;;;31.88;24.44
76627;BME280;65519;53.230;10.390;2023-07-09T12:09:33;101574.06;;;31.93;25.64
76627;BME280;65519;53.230;10.390;2023-07-09T12:12:02;101570.06;;;32.02;24.15
76627;BME280;65519;53.230;10.390;2023-07-09T12:14:28;101561.19;;;31.96;24.28
76627;BME280;65519;53.230;10.390;2023-07-09T12:16:54;101564.03;;;32.00;25.30
76627;BME280;65519;53.230;10.390;2023-07-09T12:19:24;101562.13;;;32.18;25.60
76627;BME280;65519;53.230;10.390;2023-07-09T12:21:52;101555.69;;;32.21;26.54
76627;BME280;65519;53.230;10.390;2023-07-09T12:26:55;101548.47;;;32.34;25.39
76627;BME280;65519;53.230;10.390;2023-07-09T12:29:34;101548.88;;;32.36;25.89
76627;BME280;65519;53.230;10.390;2023-07-09T12:32:06;101542.09;;;32.44;25.03
76627;BME280;65519;53.230;10.390;2023-07-09T12:34:35;101550.56;;;32.51;24.89
76627;BME280;65519;53.230;10.390;2023-07-09T12:37:01;101542.50;;;32.50;25.68
76627;BME280;65519;53.230;10.390;2023-07-09T12:39:29;101548.91;;;32.40;26.45
76627;BME280;65519;53.230;10.390;2023-07-09T12:41:58;101550.91;;;32.36;25.40
76627;BME280;65519;53.230;10.390;2023-07-09T12:44:24;101546.47;;;32.35;24.50
76627;BME280;65519;53.230;10.390;2023-07-09T12:46:52;101539.25;;;32.41;24.71
76627;BME280;65519;53.230;10.390;2023-07-09T12:49:26;101541.25;;;32.40;24.23
76627;BME280;65519;53.230;10.390;2023-07-09T12:52:00;101547.72;;;32.48;26.33
76627;BME280;65519;53.230;10.390;2023-07-09T12:54:29;101540.44;;;32.40;25.36
76627;BME280;65519;53.230;10.390;2023-07-09T12:56:56;101539.28;;;32.51;25.25
76627;BME280;65519;53.230;10.390;2023-07-09T12:59:27;101547.31;;;32.42;25.10
76627;BME280;65519;53.230;10.390;2023-07-09T13:02:02;101531.97;;;32.36;24.45
76627;BME280;65519;53.230;10.390;2023-07-09T13:04:34;101541.25;;;32.37;24.42
76627;BME280;65519;53.230;10.390;2023-07-09T13:07:01;101534.81;;;32.43;23.48
76627;BME280;65519;53.230;10.390;2023-07-09T13:09:28;101540.44;;;32.36;24.09
76627;BME280;65519;53.230;10.390;2023-07-09T13:11:54;101531.19;;;32.39;24.00
76627;BME280;65519;53.230;10.390;2023-07-09T13:16:48;101540.41;;;32.29;24.33
76627;BME280;65519;53.230;10.390;2023-07-09T13:19:16;101536.75;;;32.18;24.12
76627;BME280;65519;53.230;10.390;2023-07-09T13:21:42;101534.75;;;32.25;24.17
76627;BME280;65519;53.230;10.390;2023-07-09T13:24:20;101538.00;;;32.31;24.36
76627;BME280;65519;53.230;10.390;2023-07-09T13:26:47;101537.22;;;32.41;22.49
76627;BME280;65519;53.230;10.390;2023-07-09T13:29:14;101532.00;;;32.43;23.07
76627;BME280;65519;53.230;10.390;2023-07-09T13:31:41;101534.41;;;32.41;23.38
76627;BME280;65519;53.230;10.390;2023-07-09T13:34:24;101536.50;;;32.66;23.92
76627;BME280;65519;53.230;10.390;2023-07-09T13:36:52;101533.22;;;32.49;23.12
76627;BME280;65519;53.230;10.390;2023-07-09T13:39:19;101532.41;;;32.56;23.42